sensor_id;sensor_type;location;lat;lon;timestamp;P1;durP1;ratioP1;P2;durP2;ratioP2
74124;SDS011;62475;52.192;5.396;2023-05-01T00:01:43;3.60;;;1.90;;
74124;SDS011;62475;52.192;5.396;2023-05-01T00:04:08;4.15;;;2.15;;
74124;SDS011;62475;52.192;5.396;2023-05-01T00:06:34;5.03;;;2.63;;
74124;SDS011;62475;52.192;5.396;2023-05-01T00:08:59;4.55;;;2.47;;
74124;SDS011;62475;52.192;5.396;2023-05-01T00:11:24;5.43;;;2.50;;
74124;SDS011;62475;52.192;5.396;2023-05-01T00:13:50;3.65;;;2.20;;
74124;SDS011;62475;52.192;5.396;2023-05-01T00:16:15;4.38;;;1.92;;
74124;SDS011;62475;52.192;5.396;2023-05-01T00:18:41;4.85;;;2.25;;
74124;SDS011;62475;52.192;5.396;2023-05-01T00:21:07;5.07;;;2.35;;
74124;SDS011;62475;52.192;5.396;2023-05-01T00:23:33;5.03;;;2.42;;
74124;SDS011;62475;52.192;5.396;2023-05-01T00:25:58;3.15;;;2.10;;
74124;SDS011;62475;52.192;5.396;2023-05-01T00:28:23;5.40;;;1.98;;
74124;SDS011;62475;52.192;5.396;2023-05-01T00:30:49;4.57;;;1.98;;
74124;SDS011;62475;52.192;5.396;2023-05-01T00:33:15;8.32;;;2.70;;
74124;SDS011;62475;52.192;5.396;2023-05-01T00:35:42;5.47;;;2.25;;
74124;SDS011;62475;52.192;5.396;2023-05-01T00:38:09;4.65;;;2.17;;
74124;SDS011;62475;52.192;5.396;2023-05-01T00:40:40;5.60;;;3.03;;
74124;SDS011;62475;52.192;5.396;2023-05-01T00:43:06;6.55;;;2.55;;
74124;SDS011;62475;52.192;5.396;2023-05-01T00:45:31;5.82;;;2.75;;
74124;SDS011;62475;52.192;5.396;2023-05-01T00:47:57;4.93;;;2.17;;
74124;SDS011;62475;52.192;5.396;2023-05-01T00:50:22;4.03;;;2.70;;
74124;SDS011;62475;52.192;5.396;2023-05-01T00:52:49;4.15;;;1.85;;
74124;SDS011;62475;52.192;5.396;2023-05-01T00:55:15;3.80;;;2.30;;
74124;SDS011;62475;52.192;5.396;2023-05-01T00:57:40;6.20;;;2.92;;
74124;SDS011;62475;52.192;5.396;2023-05-01T01:00:06;5.90;;;2.30;;
74124;SDS011;62475;52.192;5.396;2023-05-01T01:02:35;4.07;;;2.30;;
74124;SDS011;62475;52.192;5.396;2023-05-01T01:05:01;4.80;;;2.40;;
74124;SDS011;62475;52.192;5.396;2023-05-01T01:13:26;5.00;;;2.13;;
74124;SDS011;62475;52.192;5.396;2023-05-01T01:16:38;7.30;;;2.80;;
74124;SDS011;62475;52.192;5.396;2023-05-01T01:19:24;6.00;;;2.20;;
74124;SDS011;62475;52.192;5.396;2023-05-01T01:22:08;6.57;;;2.50;;
74124;SDS011;62475;52.192;5.396;2023-05-01T01:28:02;6.32;;;2.35;;
74124;SDS011;62475;52.192;5.396;2023-05-01T01:39:23;5.00;;;2.75;;
74124;SDS011;62475;52.192;5.396;2023-05-01T01:41:54;5.85;;;2.70;;
74124;SDS011;62475;52.192;5.396;2023-05-01T01:44:46;6.38;;;2.40;;
74124;SDS011;62475;52.192;5.396;2023-05-01T01:47:12;5.75;;;2.50;;
74124;SDS011;62475;52.192;5.396;2023-05-01T01:49:41;3.85;;;2.05;;
74124;SDS011;62475;52.192;5.396;2023-05-01T01:52:11;6.45;;;2.08;;
74124;SDS011;62475;52.192;5.396;2023-05-01T01:54:41;5.18;;;2.17;;
74124;SDS011;62475;52.192;5.396;2023-05-01T01:57:16;5.30;;;2.58;;
74124;SDS011;62475;52.192;5.396;2023-05-01T01:59:46;3.63;;;2.42;;
74124;SDS011;62475;52.192;5.396;2023-05-01T02:02:14;9.32;;;2.72;;
74124;SDS011;62475;52.192;5.396;2023-05-01T02:04:42;5.13;;;2.38;;
74124;SDS011;62475;52.192;5.396;2023-05-01T02:07:09;5.93;;;2.40;;
74124;SDS011;62475;52.192;5.396;2023-05-01T02:09:36;7.18;;;2.45;;
74124;SDS011;62475;52.192;5.396;2023-05-01T02:12:04;6.05;;;2.90;;
74124;SDS011;62475;52.192;5.396;2023-05-01T02:14:32;5.22;;;2.50;;
74124;SDS011;62475;52.192;5.396;2023-05-01T02:16:59;9.32;;;3.13;;
74124;SDS011;62475;52.192;5.396;2023-05-01T02:19:25;4.75;;;2.53;;
74124;SDS011;62475;52.192;5.396;2023-05-01T02:21:52;7.47;;;2.50;;
74124;SDS011;62475;52.192;5.396;2023-05-01T02:24:21;4.80;;;2.50;;
74124;SDS011;62475;52.192;5.396;2023-05-01T02:26:56;5.03;;;2.45;;
74124;SDS011;62475;52.192;5.396;2023-05-01T02:29:28;5.18;;;2.10;;
74124;SDS011;62475;52.192;5.396;2023-05-01T02:31:53;5.47;;;3.03;;
74124;SDS011;62475;52.192;5.396;2023-05-01T02:34:19;4.70;;;2.60;;
74124;SDS011;62475;52.192;5.396;2023-05-01T02:36:45;9.10;;;3.05;;
74124;SDS011;62475;52.192;5.396;2023-05-01T02:39:10;7.65;;;2.85;;
74124;SDS011;62475;52.192;5.396;2023-05-01T02:41:36;3.60;;;2.10;;
74124;SDS011;62475;52.192;5.396;2023-05-01T02:44:03;5.15;;;2.47;;
74124;SDS011;62475;52.192;5.396;2023-05-01T02:46:32;6.85;;;2.13;;
74124;SDS011;62475;52.192;5.396;2023-05-01T02:49:01;5.28;;;2.53;;
74124;SDS011;62475;52.192;5.396;2023-05-01T02:51:28;6.03;;;2.35;;
74124;SDS011;62475;52.192;5.396;2023-05-01T02:53:56;6.60;;;2.13;;
74124;SDS011;62475;52.192;5.396;2023-05-01T02:56:24;5.63;;;2.53;;
74124;SDS011;62475;52.192;5.396;2023-05-01T02:58:51;4.85;;;2.53;;
74124;SDS011;62475;52.192;5.396;2023-05-01T03:01:17;5.43;;;2.53;;
74124;SDS011;62475;52.192;5.396;2023-05-01T03:03:42;6.72;;;2.92;;
74124;SDS011;62475;52.192;5.396;2023-05-01T03:06:08;5.00;;;2.72;;
74124;SDS011;62475;52.192;5.396;2023-05-01T03:08:33;3.67;;;2.10;;
74124;SDS011;62475;52.192;5.396;2023-05-01T03:11:05;5.45;;;3.10;;
74124;SDS011;62475;52.192;5.396;2023-05-01T03:13:31;6.55;;;2.80;;
74124;SDS011;62475;52.192;5.396;2023-05-01T03:15:56;5.72;;;2.97;;
74124;SDS011;62475;52.192;5.396;2023-05-01T03:18:24;7.38;;;2.55;;
74124;SDS011;62475;52.192;5.396;2023-05-01T03:20:53;5.28;;;2.58;;
74124;SDS011;62475;52.192;5.396;2023-05-01T03:23:18;5.60;;;2.50;;
74124;SDS011;62475;52.192;5.396;2023-05-01T03:25:45;6.45;;;3.10;;
74124;SDS011;62475;52.192;5.396;2023-05-01T03:28:10;7.47;;;2.92;;
74124;SDS011;62475;52.192;5.396;2023-05-01T03:30:35;3.95;;;2.42;;
74124;SDS011;62475;52.192;5.396;2023-05-01T03:33:01;7.43;;;3.53;;
74124;SDS011;62475;52.192;5.396;2023-05-01T03:35:26;5.03;;;2.65;;
74124;SDS011;62475;52.192;5.396;2023-05-01T03:37:52;7.20;;;3.05;;
74124;SDS011;62475;52.192;5.396;2023-05-01T03:40:17;7.75;;;2.72;;
74124;SDS011;62475;52.192;5.396;2023-05-01T03:42:43;4.88;;;2.75;;
74124;SDS011;62475;52.192;5.396;2023-05-01T03:45:08;5.03;;;3.08;;
74124;SDS011;62475;52.192;5.396;2023-05-01T03:47:35;7.80;;;3.08;;
74124;SDS011;62475;52.192;5.396;2023-05-01T03:50:00;6.22;;;2.78;;
74124;SDS011;62475;52.192;5.396;2023-05-01T03:52:25;10.63;;;3.15;;
74124;SDS011;62475;52.192;5.396;2023-05-01T03:54:51;6.13;;;2.70;;
74124;SDS011;62475;52.192;5.396;2023-05-01T03:57:17;4.57;;;2.20;;
74124;SDS011;62475;52.192;5.396;2023-05-01T03:59:44;9.23;;;3.03;;
74124;SDS011;62475;52.192;5.396;2023-05-01T04:02:10;6.55;;;2.45;;
74124;SDS011;62475;52.192;5.396;2023-05-01T04:04:35;6.63;;;2.90;;
74124;SDS011;62475;52.192;5.396;2023-05-01T04:07:00;5.88;;;3.30;;
74124;SDS011;62475;52.192;5.396;2023-05-01T04:09:26;5.15;;;2.65;;
74124;SDS011;62475;52.192;5.396;2023-05-01T04:11:53;10.38;;;3.90;;
74124;SDS011;62475;52.192;5.396;2023-05-01T04:14:19;7.25;;;2.90;;
74124;SDS011;62475;52.192;5.396;2023-05-01T04:16:45;5.18;;;2.67;;
74124;SDS011;62475;52.192;5.396;2023-05-01T04:19:11;11.45;;;3.00;;
74124;SDS011;62475;52.192;5.396;2023-05-01T04:21:37;4.80;;;2.92;;
74124;SDS011;62475;52.192;5.396;2023-05-01T04:24:03;8.43;;;3.28;;
74124;SDS011;62475;52.192;5.396;2023-05-01T04:26:29;5.90;;;3.03;;
74124;SDS011;62475;52.192;5.396;2023-05-01T04:28:54;6.13;;;2.90;;
74124;SDS011;62475;52.192;5.396;2023-05-01T04:31:20;5.82;;;2.65;;
74124;SDS011;62475;52.192;5.396;2023-05-01T04:33:46;7.40;;;3.15;;
74124;SDS011;62475;52.192;5.396;2023-05-01T04:36:12;9.48;;;2.80;;
74124;SDS011;62475;52.192;5.396;2023-05-01T04:38:37;9.23;;;2.95;;
74124;SDS011;62475;52.192;5.396;2023-05-01T04:41:05;8.33;;;2.90;;
74124;SDS011;62475;52.192;5.396;2023-05-01T04:43:31;5.32;;;3.00;;
74124;SDS011;62475;52.192;5.396;2023-05-01T04:45:56;4.97;;;2.60;;
74124;SDS011;62475;52.192;5.396;2023-05-01T04:48:21;6.65;;;3.00;;
74124;SDS011;62475;52.192;5.396;2023-05-01T04:50:48;8.48;;;3.30;;
74124;SDS011;62475;52.192;5.396;2023-05-01T04:53:14;5.53;;;3.30;;
74124;SDS011;62475;52.192;5.396;2023-05-01T04:55:39;5.50;;;3.38;;
74124;SDS011;62475;52.192;5.396;2023-05-01T04:58:04;8.60;;;3.55;;
74124;SDS011;62475;52.192;5.396;2023-05-01T05:00:30;7.40;;;3.33;;
74124;SDS011;62475;52.192;5.396;2023-05-01T05:02:55;7.40;;;3.25;;
74124;SDS011;62475;52.192;5.396;2023-05-01T05:05:20;7.17;;;3.83;;
74124;SDS011;62475;52.192;5.396;2023-05-01T05:07:46;6.72;;;3.58;;
74124;SDS011;62475;52.192;5.396;2023-05-01T05:10:12;7.10;;;3.58;;
74124;SDS011;62475;52.192;5.396;2023-05-01T05:12:38;7.68;;;3.13;;
74124;SDS011;62475;52.192;5.396;2023-05-01T05:15:03;8.07;;;3.40;;
74124;SDS011;62475;52.192;5.396;2023-05-01T05:17:29;6.65;;;3.45;;
74124;SDS011;62475;52.192;5.396;2023-05-01T05:19:55;7.18;;;3.00;;
74124;SDS011;62475;52.192;5.396;2023-05-01T05:22:20;5.90;;;2.80;;
74124;SDS011;62475;52.192;5.396;2023-05-01T05:24:45;7.20;;;3.40;;
74124;SDS011;62475;52.192;5.396;2023-05-01T05:27:17;8.80;;;3.10;;
74124;SDS011;62475;52.192;5.396;2023-05-01T05:29:43;7.63;;;3.45;;
74124;SDS011;62475;52.192;5.396;2023-05-01T05:32:08;8.03;;;3.23;;
74124;SDS011;62475;52.192;5.396;2023-05-01T05:34:34;6.90;;;3.75;;
74124;SDS011;62475;52.192;5.396;2023-05-01T05:36:59;9.00;;;3.40;;
74124;SDS011;62475;52.192;5.396;2023-05-01T05:39:24;9.18;;;3.97;;
74124;SDS011;62475;52.192;5.396;2023-05-01T05:41:50;7.55;;;3.58;;
74124;SDS011;62475;52.192;5.396;2023-05-01T05:44:17;9.80;;;4.22;;
74124;SDS011;62475;52.192;5.396;2023-05-01T05:46:42;9.13;;;3.45;;
74124;SDS011;62475;52.192;5.396;2023-05-01T05:49:08;8.57;;;3.60;;
74124;SDS011;62475;52.192;5.396;2023-05-01T05:51:34;7.07;;;3.67;;
74124;SDS011;62475;52.192;5.396;2023-05-01T05:54:00;6.68;;;3.80;;
74124;SDS011;62475;52.192;5.396;2023-05-01T05:56:25;7.57;;;4.00;;
74124;SDS011;62475;52.192;5.396;2023-05-01T05:58:50;8.07;;;3.63;;
74124;SDS011;62475;52.192;5.396;2023-05-01T06:01:15;7.75;;;3.30;;
74124;SDS011;62475;52.192;5.396;2023-05-01T06:03:41;7.28;;;3.80;;
74124;SDS011;62475;52.192;5.396;2023-05-01T06:06:08;12.43;;;4.90;;
74124;SDS011;62475;52.192;5.396;2023-05-01T06:08:36;9.13;;;3.53;;
74124;SDS011;62475;52.192;5.396;2023-05-01T06:11:02;6.55;;;3.60;;
74124;SDS011;62475;52.192;5.396;2023-05-01T06:13:27;9.60;;;3.70;;
74124;SDS011;62475;52.192;5.396;2023-05-01T06:15:53;8.32;;;3.85;;
74124;SDS011;62475;52.192;5.396;2023-05-01T06:18:22;7.45;;;3.35;;
74124;SDS011;62475;52.192;5.396;2023-05-01T06:20:48;7.03;;;3.45;;
74124;SDS011;62475;52.192;5.396;2023-05-01T06:23:15;7.72;;;3.50;;
74124;SDS011;62475;52.192;5.396;2023-05-01T06:25:40;9.23;;;3.60;;
74124;SDS011;62475;52.192;5.396;2023-05-01T06:28:06;11.35;;;3.53;;
74124;SDS011;62475;52.192;5.396;2023-05-01T06:30:31;6.22;;;3.13;;
74124;SDS011;62475;52.192;5.396;2023-05-01T06:32:57;10.23;;;3.83;;
74124;SDS011;62475;52.192;5.396;2023-05-01T06:35:22;7.13;;;3.63;;
74124;SDS011;62475;52.192;5.396;2023-05-01T06:37:47;7.53;;;3.73;;
74124;SDS011;62475;52.192;5.396;2023-05-01T06:40:13;8.93;;;3.77;;
74124;SDS011;62475;52.192;5.396;2023-05-01T06:42:40;7.45;;;3.55;;
74124;SDS011;62475;52.192;5.396;2023-05-01T06:45:06;11.82;;;3.85;;
74124;SDS011;62475;52.192;5.396;2023-05-01T06:47:32;9.23;;;3.60;;
74124;SDS011;62475;52.192;5.396;2023-05-01T06:49:57;6.32;;;3.40;;
74124;SDS011;62475;52.192;5.396;2023-05-01T06:52:23;8.43;;;3.60;;
74124;SDS011;62475;52.192;5.396;2023-05-01T06:54:49;6.43;;;3.28;;
74124;SDS011;62475;52.192;5.396;2023-05-01T06:57:14;8.52;;;3.50;;
74124;SDS011;62475;52.192;5.396;2023-05-01T06:59:40;9.15;;;3.70;;
74124;SDS011;62475;52.192;5.396;2023-05-01T07:02:05;6.97;;;3.33;;
74124;SDS011;62475;52.192;5.396;2023-05-01T07:04:31;6.80;;;3.60;;
74124;SDS011;62475;52.192;5.396;2023-05-01T07:06:56;9.02;;;3.55;;
74124;SDS011;62475;52.192;5.396;2023-05-01T07:09:22;8.77;;;3.50;;
74124;SDS011;62475;52.192;5.396;2023-05-01T07:11:48;6.28;;;3.45;;
74124;SDS011;62475;52.192;5.396;2023-05-01T07:14:13;8.15;;;3.30;;
74124;SDS011;62475;52.192;5.396;2023-05-01T07:16:39;8.20;;;3.40;;
74124;SDS011;62475;52.192;5.396;2023-05-01T07:19:05;7.47;;;3.50;;
74124;SDS011;62475;52.192;5.396;2023-05-01T07:21:30;7.88;;;3.22;;
74124;SDS011;62475;52.192;5.396;2023-05-01T07:23:56;9.65;;;3.75;;
74124;SDS011;62475;52.192;5.396;2023-05-01T07:26:21;9.18;;;3.63;;
74124;SDS011;62475;52.192;5.396;2023-05-01T07:28:52;7.88;;;3.50;;
74124;SDS011;62475;52.192;5.396;2023-05-01T07:31:18;8.98;;;4.32;;
74124;SDS011;62475;52.192;5.396;2023-05-01T07:33:43;11.63;;;3.38;;
74124;SDS011;62475;52.192;5.396;2023-05-01T07:36:09;7.65;;;3.75;;
74124;SDS011;62475;52.192;5.396;2023-05-01T07:38:34;12.73;;;3.63;;
74124;SDS011;62475;52.192;5.396;2023-05-01T07:40:59;8.02;;;3.92;;
74124;SDS011;62475;52.192;5.396;2023-05-01T07:43:25;6.93;;;3.60;;
74124;SDS011;62475;52.192;5.396;2023-05-01T07:45:56;9.10;;;3.63;;
74124;SDS011;62475;52.192;5.396;2023-05-01T07:48:24;6.40;;;3.63;;
74124;SDS011;62475;52.192;5.396;2023-05-01T07:50:50;6.22;;;3.88;;
74124;SDS011;62475;52.192;5.396;2023-05-01T07:53:15;9.02;;;3.67;;
74124;SDS011;62475;52.192;5.396;2023-05-01T07:55:41;7.22;;;3.58;;
74124;SDS011;62475;52.192;5.396;2023-05-01T07:58:06;10.95;;;3.78;;
74124;SDS011;62475;52.192;5.396;2023-05-01T08:00:31;6.53;;;3.88;;
74124;SDS011;62475;52.192;5.396;2023-05-01T08:02:57;7.80;;;3.95;;
74124;SDS011;62475;52.192;5.396;2023-05-01T08:05:22;9.00;;;4.03;;
74124;SDS011;62475;52.192;5.396;2023-05-01T08:07:47;10.93;;;3.65;;
74124;SDS011;62475;52.192;5.396;2023-05-01T08:10:13;8.02;;;3.67;;
74124;SDS011;62475;52.192;5.396;2023-05-01T08:12:40;10.18;;;4.32;;
74124;SDS011;62475;52.192;5.396;2023-05-01T08:15:05;8.07;;;3.75;;
74124;SDS011;62475;52.192;5.396;2023-05-01T08:17:34;7.53;;;3.83;;
74124;SDS011;62475;52.192;5.396;2023-05-01T08:20:00;6.65;;;4.03;;
74124;SDS011;62475;52.192;5.396;2023-05-01T08:22:25;7.63;;;3.50;;
74124;SDS011;62475;52.192;5.396;2023-05-01T08:24:51;6.43;;;3.40;;
74124;SDS011;62475;52.192;5.396;2023-05-01T08:27:16;10.30;;;4.20;;
74124;SDS011;62475;52.192;5.396;2023-05-01T08:29:42;7.75;;;3.75;;
74124;SDS011;62475;52.192;5.396;2023-05-01T08:32:07;9.73;;;4.10;;
74124;SDS011;62475;52.192;5.396;2023-05-01T08:34:34;6.45;;;3.72;;
74124;SDS011;62475;52.192;5.396;2023-05-01T08:37:00;9.18;;;3.92;;
74124;SDS011;62475;52.192;5.396;2023-05-01T08:39:25;10.88;;;3.97;;
74124;SDS011;62475;52.192;5.396;2023-05-01T08:41:52;7.90;;;3.88;;
74124;SDS011;62475;52.192;5.396;2023-05-01T08:44:18;7.75;;;4.18;;
74124;SDS011;62475;52.192;5.396;2023-05-01T08:49:30;8.75;;;3.90;;
74124;SDS011;62475;52.192;5.396;2023-05-01T08:51:57;11.45;;;4.63;;
74124;SDS011;62475;52.192;5.396;2023-05-01T08:54:26;9.27;;;4.20;;
74124;SDS011;62475;52.192;5.396;2023-05-01T08:56:51;13.40;;;4.10;;
74124;SDS011;62475;52.192;5.396;2023-05-01T08:59:17;8.25;;;4.50;;
74124;SDS011;62475;52.192;5.396;2023-05-01T09:01:44;7.13;;;4.30;;
74124;SDS011;62475;52.192;5.396;2023-05-01T09:04:11;8.95;;;4.15;;
74124;SDS011;62475;52.192;5.396;2023-05-01T09:06:38;8.63;;;4.50;;
74124;SDS011;62475;52.192;5.396;2023-05-01T09:09:04;9.80;;;4.75;;
74124;SDS011;62475;52.192;5.396;2023-05-01T09:11:30;6.82;;;4.22;;
74124;SDS011;62475;52.192;5.396;2023-05-01T09:13:55;7.68;;;4.20;;
74124;SDS011;62475;52.192;5.396;2023-05-01T09:16:22;11.02;;;4.20;;
74124;SDS011;62475;52.192;5.396;2023-05-01T09:18:47;6.47;;;4.18;;
74124;SDS011;62475;52.192;5.396;2023-05-01T09:21:13;7.55;;;3.90;;
74124;SDS011;62475;52.192;5.396;2023-05-01T09:23:39;6.78;;;4.05;;
74124;SDS011;62475;52.192;5.396;2023-05-01T09:26:05;6.78;;;3.53;;
74124;SDS011;62475;52.192;5.396;2023-05-01T09:31:27;8.90;;;4.30;;
74124;SDS011;62475;52.192;5.396;2023-05-01T09:36:25;10.32;;;3.88;;
74124;SDS011;62475;52.192;5.396;2023-05-01T09:38:53;7.70;;;3.63;;
74124;SDS011;62475;52.192;5.396;2023-05-01T09:41:19;8.48;;;3.55;;
74124;SDS011;62475;52.192;5.396;2023-05-01T09:43:48;6.55;;;3.20;;
74124;SDS011;62475;52.192;5.396;2023-05-01T09:46:15;8.48;;;4.05;;
74124;SDS011;62475;52.192;5.396;2023-05-01T09:48:50;7.88;;;3.95;;
74124;SDS011;62475;52.192;5.396;2023-05-01T09:51:30;9.10;;;3.95;;
74124;SDS011;62475;52.192;5.396;2023-05-01T09:53:57;7.07;;;3.88;;
74124;SDS011;62475;52.192;5.396;2023-05-01T09:56:25;7.32;;;3.58;;
74124;SDS011;62475;52.192;5.396;2023-05-01T09:58:51;8.85;;;3.40;;
74124;SDS011;62475;52.192;5.396;2023-05-01T10:01:18;8.73;;;4.05;;
74124;SDS011;62475;52.192;5.396;2023-05-01T10:04:01;7.22;;;3.97;;
74124;SDS011;62475;52.192;5.396;2023-05-01T10:06:27;10.48;;;3.85;;
74124;SDS011;62475;52.192;5.396;2023-05-01T10:08:54;10.57;;;3.80;;
74124;SDS011;62475;52.192;5.396;2023-05-01T10:11:19;7.05;;;3.40;;
74124;SDS011;62475;52.192;5.396;2023-05-01T10:13:59;12.35;;;3.40;;
74124;SDS011;62475;52.192;5.396;2023-05-01T10:16:30;9.35;;;3.65;;
74124;SDS011;62475;52.192;5.396;2023-05-01T10:18:57;6.80;;;3.55;;
74124;SDS011;62475;52.192;5.396;2023-05-01T10:21:24;7.32;;;3.45;;
74124;SDS011;62475;52.192;5.396;2023-05-01T10:23:50;11.75;;;3.65;;
74124;SDS011;62475;52.192;5.396;2023-05-01T10:26:17;6.35;;;3.67;;
74124;SDS011;62475;52.192;5.396;2023-05-01T10:28:43;5.60;;;2.97;;
74124;SDS011;62475;52.192;5.396;2023-05-01T10:31:10;5.93;;;3.17;;
74124;SDS011;62475;52.192;5.396;2023-05-01T10:33:37;7.88;;;2.80;;
74124;SDS011;62475;52.192;5.396;2023-05-01T10:36:04;10.40;;;3.75;;
74124;SDS011;62475;52.192;5.396;2023-05-01T10:38:33;6.70;;;2.75;;
74124;SDS011;62475;52.192;5.396;2023-05-01T10:41:01;5.80;;;2.67;;
74124;SDS011;62475;52.192;5.396;2023-05-01T10:43:28;5.72;;;2.53;;
74124;SDS011;62475;52.192;5.396;2023-05-01T10:51:07;6.90;;;3.55;;
74124;SDS011;62475;52.192;5.396;2023-05-01T10:53:41;7.80;;;3.15;;
74124;SDS011;62475;52.192;5.396;2023-05-01T10:56:38;8.70;;;3.45;;
74124;SDS011;62475;52.192;5.396;2023-05-01T10:59:02;10.63;;;4.28;;
74124;SDS011;62475;52.192;5.396;2023-05-01T11:01:29;7.50;;;3.65;;
74124;SDS011;62475;52.192;5.396;2023-05-01T11:03:56;7.10;;;3.45;;
74124;SDS011;62475;52.192;5.396;2023-05-01T11:06:23;7.53;;;3.50;;
74124;SDS011;62475;52.192;5.396;2023-05-01T11:08:49;8.55;;;4.28;;
74124;SDS011;62475;52.192;5.396;2023-05-01T11:13:56;9.23;;;4.93;;
74124;SDS011;62475;52.192;5.396;2023-05-01T11:21:36;7.40;;;4.40;;
74124;SDS011;62475;52.192;5.396;2023-05-01T11:24:07;7.30;;;3.20;;
74124;SDS011;62475;52.192;5.396;2023-05-01T11:26:39;6.53;;;3.70;;
74124;SDS011;62475;52.192;5.396;2023-05-01T11:29:06;9.73;;;3.95;;
74124;SDS011;62475;52.192;5.396;2023-05-01T11:31:33;8.63;;;3.88;;
74124;SDS011;62475;52.192;5.396;2023-05-01T11:33:58;6.07;;;3.25;;
74124;SDS011;62475;52.192;5.396;2023-05-01T11:36:24;5.55;;;2.97;;
74124;SDS011;62475;52.192;5.396;2023-05-01T11:38:51;6.72;;;3.25;;
74124;SDS011;62475;52.192;5.396;2023-05-01T11:41:18;9.25;;;3.28;;
74124;SDS011;62475;52.192;5.396;2023-05-01T11:43:52;5.43;;;3.15;;
74124;SDS011;62475;52.192;5.396;2023-05-01T11:46:22;5.32;;;3.38;;
74124;SDS011;62475;52.192;5.396;2023-05-01T11:48:49;6.75;;;3.80;;
74124;SDS011;62475;52.192;5.396;2023-05-01T11:51:14;8.70;;;3.47;;
74124;SDS011;62475;52.192;5.396;2023-05-01T11:53:40;10.20;;;3.28;;
74124;SDS011;62475;52.192;5.396;2023-05-01T11:56:17;8.15;;;4.25;;
74124;SDS011;62475;52.192;5.396;2023-05-01T11:58:43;7.50;;;3.33;;
74124;SDS011;62475;52.192;5.396;2023-05-01T12:01:09;7.40;;;4.55;;
74124;SDS011;62475;52.192;5.396;2023-05-01T12:03:40;8.00;;;3.38;;
74124;SDS011;62475;52.192;5.396;2023-05-01T12:06:09;7.53;;;2.45;;
74124;SDS011;62475;52.192;5.396;2023-05-01T12:08:40;4.68;;;1.73;;
74124;SDS011;62475;52.192;5.396;2023-05-01T12:11:12;3.58;;;1.98;;
74124;SDS011;62475;52.192;5.396;2023-05-01T12:13:38;5.50;;;1.98;;
74124;SDS011;62475;52.192;5.396;2023-05-01T12:16:04;3.30;;;1.63;;
74124;SDS011;62475;52.192;5.396;2023-05-01T12:18:30;4.32;;;1.40;;
74124;SDS011;62475;52.192;5.396;2023-05-01T12:20:56;5.35;;;2.10;;
74124;SDS011;62475;52.192;5.396;2023-05-01T12:23:31;5.72;;;1.95;;
74124;SDS011;62475;52.192;5.396;2023-05-01T12:25:58;5.97;;;1.77;;
74124;SDS011;62475;52.192;5.396;2023-05-01T12:28:24;5.80;;;1.98;;
74124;SDS011;62475;52.192;5.396;2023-05-01T12:30:51;8.48;;;2.00;;
74124;SDS011;62475;52.192;5.396;2023-05-01T12:33:20;8.10;;;1.90;;
74124;SDS011;62475;52.192;5.396;2023-05-01T12:35:47;4.88;;;2.40;;
74124;SDS011;62475;52.192;5.396;2023-05-01T12:43:19;7.65;;;4.32;;
74124;SDS011;62475;52.192;5.396;2023-05-01T12:45:49;9.18;;;4.68;;
74124;SDS011;62475;52.192;5.396;2023-05-01T12:48:16;12.07;;;4.65;;
74124;SDS011;62475;52.192;5.396;2023-05-01T12:50:43;12.73;;;5.35;;
74124;SDS011;62475;52.192;5.396;2023-05-01T12:53:08;9.65;;;4.28;;
74124;SDS011;62475;52.192;5.396;2023-05-01T12:55:47;16.35;;;5.13;;
74124;SDS011;62475;52.192;5.396;2023-05-01T12:58:14;7.95;;;4.47;;
74124;SDS011;62475;52.192;5.396;2023-05-01T13:00:53;8.95;;;4.20;;
74124;SDS011;62475;52.192;5.396;2023-05-01T13:03:23;8.40;;;4.43;;
74124;SDS011;62475;52.192;5.396;2023-05-01T13:05:57;7.72;;;4.60;;
74124;SDS011;62475;52.192;5.396;2023-05-01T13:08:24;9.43;;;4.85;;
74124;SDS011;62475;52.192;5.396;2023-05-01T13:10:52;12.23;;;4.60;;
74124;SDS011;62475;52.192;5.396;2023-05-01T13:15:51;9.20;;;4.60;;
74124;SDS011;62475;52.192;5.396;2023-05-01T13:18:16;8.77;;;4.32;;
74124;SDS011;62475;52.192;5.396;2023-05-01T13:20:45;6.40;;;3.60;;
74124;SDS011;62475;52.192;5.396;2023-05-01T13:23:10;8.27;;;3.90;;
74124;SDS011;62475;52.192;5.396;2023-05-01T13:25:38;11.98;;;4.93;;
74124;SDS011;62475;52.192;5.396;2023-05-01T13:28:04;8.45;;;4.20;;
74124;SDS011;62475;52.192;5.396;2023-05-01T13:30:30;6.50;;;2.78;;
74124;SDS011;62475;52.192;5.396;2023-05-01T13:32:57;7.50;;;3.63;;
74124;SDS011;62475;52.192;5.396;2023-05-01T13:35:23;11.63;;;3.97;;
74124;SDS011;62475;52.192;5.396;2023-05-01T13:37:49;9.10;;;4.18;;
74124;SDS011;62475;52.192;5.396;2023-05-01T13:40:15;7.82;;;4.03;;
74124;SDS011;62475;52.192;5.396;2023-05-01T13:42:42;7.53;;;3.65;;
74124;SDS011;62475;52.192;5.396;2023-05-01T13:45:07;9.30;;;4.45;;
74124;SDS011;62475;52.192;5.396;2023-05-01T13:47:34;8.20;;;4.38;;
74124;SDS011;62475;52.192;5.396;2023-05-01T13:50:00;7.53;;;3.67;;
74124;SDS011;62475;52.192;5.396;2023-05-01T13:52:26;8.75;;;4.25;;
74124;SDS011;62475;52.192;5.396;2023-05-01T13:54:51;8.82;;;3.55;;
74124;SDS011;62475;52.192;5.396;2023-05-01T13:57:20;8.38;;;3.88;;
74124;SDS011;62475;52.192;5.396;2023-05-01T13:59:45;10.85;;;3.95;;
74124;SDS011;62475;52.192;5.396;2023-05-01T14:02:18;8.20;;;4.05;;
74124;SDS011;62475;52.192;5.396;2023-05-01T14:04:47;6.50;;;3.67;;
74124;SDS011;62475;52.192;5.396;2023-05-01T14:07:22;8.38;;;4.15;;
74124;SDS011;62475;52.192;5.396;2023-05-01T14:09:52;6.50;;;3.35;;
74124;SDS011;62475;52.192;5.396;2023-05-01T14:12:23;7.72;;;4.18;;
74124;SDS011;62475;52.192;5.396;2023-05-01T14:14:50;8.82;;;4.07;;
74124;SDS011;62475;52.192;5.396;2023-05-01T14:17:17;7.45;;;3.45;;
74124;SDS011;62475;52.192;5.396;2023-05-01T14:19:42;6.50;;;3.92;;
74124;SDS011;62475;52.192;5.396;2023-05-01T14:22:07;6.53;;;3.17;;
74124;SDS011;62475;52.192;5.396;2023-05-01T14:24:34;6.05;;;3.38;;
74124;SDS011;62475;52.192;5.396;2023-05-01T14:27:01;4.65;;;3.30;;
74124;SDS011;62475;52.192;5.396;2023-05-01T14:29:26;4.18;;;2.20;;
74124;SDS011;62475;52.192;5.396;2023-05-01T14:31:53;3.13;;;2.00;;
74124;SDS011;62475;52.192;5.396;2023-05-01T14:34:19;3.95;;;2.58;;
74124;SDS011;62475;52.192;5.396;2023-05-01T14:36:45;6.05;;;2.80;;
74124;SDS011;62475;52.192;5.396;2023-05-01T14:39:11;5.03;;;2.72;;
74124;SDS011;62475;52.192;5.396;2023-05-01T14:41:38;7.30;;;3.25;;
74124;SDS011;62475;52.192;5.396;2023-05-01T14:44:09;6.65;;;3.75;;
74124;SDS011;62475;52.192;5.396;2023-05-01T14:46:35;5.65;;;3.00;;
74124;SDS011;62475;52.192;5.396;2023-05-01T14:49:10;6.78;;;3.60;;
74124;SDS011;62475;52.192;5.396;2023-05-01T14:51:48;8.38;;;3.45;;
74124;SDS011;62475;52.192;5.396;2023-05-01T14:54:14;6.72;;;3.50;;
74124;SDS011;62475;52.192;5.396;2023-05-01T14:56:41;7.10;;;3.58;;
74124;SDS011;62475;52.192;5.396;2023-05-01T14:59:08;4.25;;;3.13;;
74124;SDS011;62475;52.192;5.396;2023-05-01T15:01:33;7.22;;;3.58;;
74124;SDS011;62475;52.192;5.396;2023-05-01T15:04:07;5.38;;;3.38;;
74124;SDS011;62475;52.192;5.396;2023-05-01T15:06:34;6.40;;;3.95;;
74124;SDS011;62475;52.192;5.396;2023-05-01T15:09:00;7.55;;;3.97;;
74124;SDS011;62475;52.192;5.396;2023-05-01T15:11:26;6.75;;;3.60;;
74124;SDS011;62475;52.192;5.396;2023-05-01T15:13:52;6.22;;;3.85;;
74124;SDS011;62475;52.192;5.396;2023-05-01T15:16:18;6.30;;;3.53;;
74124;SDS011;62475;52.192;5.396;2023-05-01T15:18:45;7.25;;;3.83;;
74124;SDS011;62475;52.192;5.396;2023-05-01T15:21:10;6.97;;;4.40;;
74124;SDS011;62475;52.192;5.396;2023-05-01T15:23:35;7.18;;;3.10;;
74124;SDS011;62475;52.192;5.396;2023-05-01T15:26:01;5.43;;;3.58;;
74124;SDS011;62475;52.192;5.396;2023-05-01T15:28:27;7.15;;;4.18;;
74124;SDS011;62475;52.192;5.396;2023-05-01T15:30:53;8.20;;;4.55;;
74124;SDS011;62475;52.192;5.396;2023-05-01T15:33:19;7.63;;;3.42;;